Ossett, United Kingdom
Current Conditions -  °F | °C
As of 8:50 AM on Sunday 23 Nov 2014 (Local Time) from EGNM Reporting Station
Few Clouds Few Clouds  
Wind Chill: 39°   Ceiling: Unl
Heat Index: 43°   Visibility: 6mi
Dew Point: 43°   Wind: 6mph
Humidity: 100%   Direction: 270°W
Pressure: 30"   Gusts: NA
Location:  53.68°N, 1.58°W
Report Text: EGNM 230850Z 27005KT 9999 FEW015 06/06 Q1016
Loading
Personal Weather Stations






























Interactive Weather Map New forecast layout! Learn more

10-Day Weather Forecast

Advertisements
Track Severe Weather on mobile